sensor_id;sensor_type;location;lat;lon;timestamp;P1;durP1;ratioP1;P2;durP2;ratioP2
1412;SDS011;701;52.526;13.408;2023-11-21T00:00:18;15.00;;;6.22;;
1412;SDS011;701;52.526;13.408;2023-11-21T00:02:45;17.42;;;7.00;;
1412;SDS011;701;52.526;13.408;2023-11-21T00:05:11;21.77;;;7.38;;
1412;SDS011;701;52.526;13.408;2023-11-21T00:07:41;16.52;;;7.70;;
1412;SDS011;701;52.526;13.408;2023-11-21T00:10:08;19.55;;;7.95;;
1412;SDS011;701;52.526;13.408;2023-11-21T00:12:35;21.23;;;7.88;;
1412;SDS011;701;52.526;13.408;2023-11-21T00:15:01;21.63;;;9.20;;
1412;SDS011;701;52.526;13.408;2023-11-21T00:17:28;19.03;;;8.63;;
1412;SDS011;701;52.526;13.408;2023-11-21T00:19:54;20.30;;;8.63;;
1412;SDS011;701;52.526;13.408;2023-11-21T00:22:19;20.83;;;8.98;;
1412;SDS011;701;52.526;13.408;2023-11-21T00:24:46;23.47;;;9.50;;
1412;SDS011;701;52.526;13.408;2023-11-21T00:27:13;22.88;;;9.27;;
1412;SDS011;701;52.526;13.408;2023-11-21T00:29:39;21.67;;;9.35;;
1412;SDS011;701;52.526;13.408;2023-11-21T00:32:05;22.35;;;9.50;;
1412;SDS011;701;52.526;13.408;2023-11-21T00:34:32;23.52;;;9.13;;
1412;SDS011;701;52.526;13.408;2023-11-21T00:36:59;22.40;;;9.60;;
1412;SDS011;701;52.526;13.408;2023-11-21T00:39:25;25.55;;;9.90;;
1412;SDS011;701;52.526;13.408;2023-11-21T00:41:51;27.57;;;9.87;;
1412;SDS011;701;52.526;13.408;2023-11-21T00:44:18;24.42;;;9.27;;
1412;SDS011;701;52.526;13.408;2023-11-21T00:46:43;30.33;;;11.55;;
1412;SDS011;701;52.526;13.408;2023-11-21T00:49:09;27.17;;;11.13;;
1412;SDS011;701;52.526;13.408;2023-11-21T00:51:35;27.80;;;9.95;;
1412;SDS011;701;52.526;13.408;2023-11-21T00:54:01;29.67;;;10.25;;
1412;SDS011;701;52.526;13.408;2023-11-21T00:56:27;34.17;;;11.77;;
1412;SDS011;701;52.526;13.408;2023-11-21T00:58:53;30.65;;;11.50;;
1412;SDS011;701;52.526;13.408;2023-11-21T01:01:19;34.78;;;10.52;;
1412;SDS011;701;52.526;13.408;2023-11-21T01:03:48;37.72;;;11.82;;
1412;SDS011;701;52.526;13.408;2023-11-21T01:06:14;42.97;;;12.93;;
1412;SDS011;701;52.526;13.408;2023-11-21T01:08:41;47.10;;;14.38;;
1412;SDS011;701;52.526;13.408;2023-11-21T01:11:08;43.33;;;14.70;;
1412;SDS011;701;52.526;13.408;2023-11-21T01:13:35;45.53;;;13.57;;
1412;SDS011;701;52.526;13.408;2023-11-21T01:16:01;50.57;;;15.57;;
1412;SDS011;701;52.526;13.408;2023-11-21T01:18:27;59.85;;;15.10;;
1412;SDS011;701;52.526;13.408;2023-11-21T01:20:54;62.72;;;17.20;;
1412;SDS011;701;52.526;13.408;2023-11-21T01:23:20;51.37;;;15.30;;
1412;SDS011;701;52.526;13.408;2023-11-21T01:25:46;50.05;;;15.48;;
1412;SDS011;701;52.526;13.408;2023-11-21T01:28:11;51.23;;;15.53;;
1412;SDS011;701;52.526;13.408;2023-11-21T01:30:37;63.63;;;16.05;;
1412;SDS011;701;52.526;13.408;2023-11-21T01:33:04;53.50;;;16.25;;
1412;SDS011;701;52.526;13.408;2023-11-21T01:35:30;55.47;;;16.02;;
1412;SDS011;701;52.526;13.408;2023-11-21T01:37:55;54.90;;;15.03;;
1412;SDS011;701;52.526;13.408;2023-11-21T01:40:21;53.60;;;14.95;;
1412;SDS011;701;52.526;13.408;2023-11-21T01:42:47;46.97;;;13.90;;
1412;SDS011;701;52.526;13.408;2023-11-21T01:45:13;50.15;;;13.85;;
1412;SDS011;701;52.526;13.408;2023-11-21T01:47:40;53.47;;;14.02;;
1412;SDS011;701;52.526;13.408;2023-11-21T01:50:07;38.97;;;11.32;;
1412;SDS011;701;52.526;13.408;2023-11-21T01:52:37;47.55;;;13.00;;
1412;SDS011;701;52.526;13.408;2023-11-21T01:55:05;47.97;;;11.67;;
1412;SDS011;701;52.526;13.408;2023-11-21T01:57:33;38.53;;;11.30;;
1412;SDS011;701;52.526;13.408;2023-11-21T02:00:03;41.97;;;11.38;;
1412;SDS011;701;52.526;13.408;2023-11-21T02:02:43;36.40;;;10.50;;
1412;SDS011;701;52.526;13.408;2023-11-21T02:05:14;34.92;;;10.73;;
1412;SDS011;701;52.526;13.408;2023-11-21T02:07:42;33.93;;;9.90;;
1412;SDS011;701;52.526;13.408;2023-11-21T02:10:08;26.98;;;9.73;;
1412;SDS011;701;52.526;13.408;2023-11-21T02:12:35;30.92;;;8.43;;
1412;SDS011;701;52.526;13.408;2023-11-21T02:15:04;30.75;;;8.27;;
1412;SDS011;701;52.526;13.408;2023-11-21T02:17:37;25.03;;;6.80;;
1412;SDS011;701;52.526;13.408;2023-11-21T02:20:03;25.23;;;7.90;;
1412;SDS011;701;52.526;13.408;2023-11-21T02:22:32;25.15;;;7.32;;
1412;SDS011;701;52.526;13.408;2023-11-21T02:25:02;20.92;;;7.28;;
1412;SDS011;701;52.526;13.408;2023-11-21T02:27:29;23.85;;;7.85;;
1412;SDS011;701;52.526;13.408;2023-11-21T02:29:55;19.47;;;6.80;;
1412;SDS011;701;52.526;13.408;2023-11-21T02:32:21;18.23;;;6.72;;
1412;SDS011;701;52.526;13.408;2023-11-21T02:34:48;20.15;;;6.80;;
1412;SDS011;701;52.526;13.408;2023-11-21T02:37:15;18.63;;;6.70;;
1412;SDS011;701;52.526;13.408;2023-11-21T02:39:40;19.98;;;7.30;;
1412;SDS011;701;52.526;13.408;2023-11-21T02:42:06;17.67;;;6.78;;
1412;SDS011;701;52.526;13.408;2023-11-21T02:44:33;16.80;;;6.83;;
1412;SDS011;701;52.526;13.408;2023-11-21T02:47:00;15.38;;;6.85;;
1412;SDS011;701;52.526;13.408;2023-11-21T02:49:26;19.85;;;6.65;;
1412;SDS011;701;52.526;13.408;2023-11-21T02:51:56;16.42;;;6.97;;
1412;SDS011;701;52.526;13.408;2023-11-21T02:54:21;20.48;;;7.45;;
1412;SDS011;701;52.526;13.408;2023-11-21T02:56:48;15.10;;;6.70;;
1412;SDS011;701;52.526;13.408;2023-11-21T02:59:15;24.80;;;8.05;;
1412;SDS011;701;52.526;13.408;2023-11-21T03:01:40;19.73;;;7.68;;
1412;SDS011;701;52.526;13.408;2023-11-21T03:04:07;17.53;;;7.43;;
1412;SDS011;701;52.526;13.408;2023-11-21T03:06:33;18.95;;;8.40;;
1412;SDS011;701;52.526;13.408;2023-11-21T03:08:59;22.85;;;8.50;;
1412;SDS011;701;52.526;13.408;2023-11-21T03:11:25;17.93;;;7.93;;
1412;SDS011;701;52.526;13.408;2023-11-21T03:13:51;19.45;;;7.68;;
1412;SDS011;701;52.526;13.408;2023-11-21T03:16:17;18.17;;;7.88;;
1412;SDS011;701;52.526;13.408;2023-11-21T03:18:45;20.90;;;7.80;;
1412;SDS011;701;52.526;13.408;2023-11-21T03:21:11;17.83;;;7.80;;
1412;SDS011;701;52.526;13.408;2023-11-21T03:23:38;18.92;;;8.73;;
1412;SDS011;701;52.526;13.408;2023-11-21T03:26:03;17.20;;;7.65;;
1412;SDS011;701;52.526;13.408;2023-11-21T03:28:29;15.53;;;7.27;;
1412;SDS011;701;52.526;13.408;2023-11-21T03:30:56;16.27;;;7.00;;
1412;SDS011;701;52.526;13.408;2023-11-21T03:33:23;12.90;;;6.07;;
1412;SDS011;701;52.526;13.408;2023-11-21T03:35:48;13.40;;;6.33;;
1412;SDS011;701;52.526;13.408;2023-11-21T03:38:14;12.18;;;6.20;;
1412;SDS011;701;52.526;13.408;2023-11-21T03:40:41;14.57;;;6.47;;
1412;SDS011;701;52.526;13.408;2023-11-21T03:43:07;12.67;;;5.97;;
1412;SDS011;701;52.526;13.408;2023-11-21T03:45:33;16.33;;;6.40;;
1412;SDS011;701;52.526;13.408;2023-11-21T03:47:58;14.93;;;6.55;;
1412;SDS011;701;52.526;13.408;2023-11-21T03:50:30;16.73;;;6.50;;
1412;SDS011;701;52.526;13.408;2023-11-21T03:52:56;14.32;;;6.80;;
1412;SDS011;701;52.526;13.408;2023-11-21T03:55:22;16.55;;;7.38;;
1412;SDS011;701;52.526;13.408;2023-11-21T03:57:51;15.18;;;7.03;;
1412;SDS011;701;52.526;13.408;2023-11-21T04:00:18;15.50;;;6.00;;
1412;SDS011;701;52.526;13.408;2023-11-21T04:02:47;15.48;;;6.40;;
1412;SDS011;701;52.526;13.408;2023-11-21T04:05:12;14.60;;;6.55;;
1412;SDS011;701;52.526;13.408;2023-11-21T04:07:38;15.00;;;6.20;;
1412;SDS011;701;52.526;13.408;2023-11-21T04:10:05;13.93;;;6.03;;
1412;SDS011;701;52.526;13.408;2023-11-21T04:12:34;15.25;;;6.10;;
1412;SDS011;701;52.526;13.408;2023-11-21T04:15:00;15.30;;;5.93;;
1412;SDS011;701;52.526;13.408;2023-11-21T04:17:26;15.07;;;5.85;;
1412;SDS011;701;52.526;13.408;2023-11-21T04:19:52;14.32;;;6.40;;
1412;SDS011;701;52.526;13.408;2023-11-21T04:22:18;14.43;;;6.10;;
1412;SDS011;701;52.526;13.408;2023-11-21T04:24:43;15.73;;;6.10;;
1412;SDS011;701;52.526;13.408;2023-11-21T04:27:09;14.80;;;6.20;;
1412;SDS011;701;52.526;13.408;2023-11-21T04:29:35;14.95;;;6.10;;
1412;SDS011;701;52.526;13.408;2023-11-21T04:32:01;14.20;;;5.43;;
1412;SDS011;701;52.526;13.408;2023-11-21T04:34:27;13.38;;;5.78;;
1412;SDS011;701;52.526;13.408;2023-11-21T04:36:56;12.23;;;4.90;;
1412;SDS011;701;52.526;13.408;2023-11-21T04:39:22;11.30;;;4.90;;
1412;SDS011;701;52.526;13.408;2023-11-21T04:41:49;11.45;;;4.93;;
1412;SDS011;701;52.526;13.408;2023-11-21T04:44:15;14.15;;;5.93;;
1412;SDS011;701;52.526;13.408;2023-11-21T04:46:42;12.93;;;5.10;;
1412;SDS011;701;52.526;13.408;2023-11-21T04:49:08;11.30;;;5.30;;
1412;SDS011;701;52.526;13.408;2023-11-21T04:51:34;10.38;;;4.57;;
1412;SDS011;701;52.526;13.408;2023-11-21T04:53:59;11.43;;;5.03;;
1412;SDS011;701;52.526;13.408;2023-11-21T04:56:25;10.90;;;4.93;;
1412;SDS011;701;52.526;13.408;2023-11-21T04:58:51;11.73;;;5.10;;
1412;SDS011;701;52.526;13.408;2023-11-21T05:01:18;11.65;;;5.18;;
1412;SDS011;701;52.526;13.408;2023-11-21T05:03:44;13.70;;;4.83;;
1412;SDS011;701;52.526;13.408;2023-11-21T05:06:10;11.80;;;5.03;;
1412;SDS011;701;52.526;13.408;2023-11-21T05:08:36;11.70;;;4.73;;
1412;SDS011;701;52.526;13.408;2023-11-21T05:11:02;13.07;;;5.15;;
1412;SDS011;701;52.526;13.408;2023-11-21T05:13:28;9.63;;;4.43;;
1412;SDS011;701;52.526;13.408;2023-11-21T05:15:54;10.77;;;4.67;;
1412;SDS011;701;52.526;13.408;2023-11-21T05:18:23;10.30;;;5.05;;
1412;SDS011;701;52.526;13.408;2023-11-21T05:20:52;13.85;;;4.57;;
1412;SDS011;701;52.526;13.408;2023-11-21T05:23:18;11.07;;;5.07;;
1412;SDS011;701;52.526;13.408;2023-11-21T05:25:45;9.60;;;4.50;;
1412;SDS011;701;52.526;13.408;2023-11-21T05:28:11;10.35;;;4.60;;
1412;SDS011;701;52.526;13.408;2023-11-21T05:30:37;10.75;;;4.47;;
1412;SDS011;701;52.526;13.408;2023-11-21T05:33:06;10.60;;;4.90;;
1412;SDS011;701;52.526;13.408;2023-11-21T05:35:31;11.27;;;4.70;;
1412;SDS011;701;52.526;13.408;2023-11-21T05:37:57;10.13;;;4.55;;
1412;SDS011;701;52.526;13.408;2023-11-21T05:40:23;11.43;;;4.67;;
1412;SDS011;701;52.526;13.408;2023-11-21T05:42:51;10.45;;;4.72;;
1412;SDS011;701;52.526;13.408;2023-11-21T05:45:17;12.00;;;5.07;;
1412;SDS011;701;52.526;13.408;2023-11-21T05:47:44;11.48;;;5.30;;
1412;SDS011;701;52.526;13.408;2023-11-21T05:50:14;10.80;;;4.80;;
1412;SDS011;701;52.526;13.408;2023-11-21T05:52:41;13.73;;;4.50;;
1412;SDS011;701;52.526;13.408;2023-11-21T05:55:09;11.45;;;5.10;;
1412;SDS011;701;52.526;13.408;2023-11-21T05:57:35;10.65;;;4.68;;
1412;SDS011;701;52.526;13.408;2023-11-21T06:00:09;11.00;;;4.65;;
1412;SDS011;701;52.526;13.408;2023-11-21T06:02:39;9.63;;;4.40;;
1412;SDS011;701;52.526;13.408;2023-11-21T06:05:08;11.70;;;4.75;;
1412;SDS011;701;52.526;13.408;2023-11-21T06:07:35;8.55;;;3.97;;
1412;SDS011;701;52.526;13.408;2023-11-21T06:10:02;10.13;;;4.53;;
1412;SDS011;701;52.526;13.408;2023-11-21T06:12:31;9.90;;;4.67;;
1412;SDS011;701;52.526;13.408;2023-11-21T06:15:01;9.77;;;4.38;;
1412;SDS011;701;52.526;13.408;2023-11-21T06:17:30;8.68;;;3.83;;
1412;SDS011;701;52.526;13.408;2023-11-21T06:19:56;10.30;;;4.03;;
1412;SDS011;701;52.526;13.408;2023-11-21T06:22:22;9.68;;;4.15;;
1412;SDS011;701;52.526;13.408;2023-11-21T06:24:48;9.47;;;4.20;;
1412;SDS011;701;52.526;13.408;2023-11-21T06:27:13;7.47;;;3.70;;
1412;SDS011;701;52.526;13.408;2023-11-21T06:29:39;7.83;;;3.40;;
1412;SDS011;701;52.526;13.408;2023-11-21T06:32:07;10.05;;;4.13;;
1412;SDS011;701;52.526;13.408;2023-11-21T06:34:33;8.80;;;3.67;;
1412;SDS011;701;52.526;13.408;2023-11-21T06:36:59;9.03;;;4.00;;
1412;SDS011;701;52.526;13.408;2023-11-21T06:39:25;7.88;;;3.38;;
1412;SDS011;701;52.526;13.408;2023-11-21T06:41:50;12.10;;;4.00;;
1412;SDS011;701;52.526;13.408;2023-11-21T06:44:16;9.30;;;4.03;;
1412;SDS011;701;52.526;13.408;2023-11-21T06:46:42;10.13;;;4.30;;
1412;SDS011;701;52.526;13.408;2023-11-21T06:49:08;9.35;;;4.35;;
1412;SDS011;701;52.526;13.408;2023-11-21T06:51:34;9.27;;;3.50;;
1412;SDS011;701;52.526;13.408;2023-11-21T06:54:00;8.90;;;3.40;;
1412;SDS011;701;52.526;13.408;2023-11-21T06:56:25;9.15;;;3.65;;
1412;SDS011;701;52.526;13.408;2023-11-21T06:58:51;8.30;;;3.83;;
1412;SDS011;701;52.526;13.408;2023-11-21T07:01:20;8.90;;;3.90;;
1412;SDS011;701;52.526;13.408;2023-11-21T07:03:45;8.23;;;3.55;;
1412;SDS011;701;52.526;13.408;2023-11-21T07:06:11;9.98;;;4.15;;
1412;SDS011;701;52.526;13.408;2023-11-21T07:08:37;8.00;;;3.28;;
1412;SDS011;701;52.526;13.408;2023-11-21T07:11:03;8.20;;;3.20;;
1412;SDS011;701;52.526;13.408;2023-11-21T07:13:30;8.15;;;3.60;;
1412;SDS011;701;52.526;13.408;2023-11-21T07:15:56;10.45;;;4.15;;
1412;SDS011;701;52.526;13.408;2023-11-21T07:18:24;7.80;;;3.40;;
1412;SDS011;701;52.526;13.408;2023-11-21T07:20:50;8.57;;;3.50;;
1412;SDS011;701;52.526;13.408;2023-11-21T07:23:17;7.63;;;3.17;;
1412;SDS011;701;52.526;13.408;2023-11-21T07:25:42;7.53;;;3.23;;
1412;SDS011;701;52.526;13.408;2023-11-21T07:28:08;8.18;;;3.85;;
1412;SDS011;701;52.526;13.408;2023-11-21T07:30:34;8.65;;;3.72;;
1412;SDS011;701;52.526;13.408;2023-11-21T07:33:00;7.87;;;3.77;;
1412;SDS011;701;52.526;13.408;2023-11-21T07:35:26;7.82;;;3.53;;
1412;SDS011;701;52.526;13.408;2023-11-21T07:37:52;10.07;;;3.53;;
1412;SDS011;701;52.526;13.408;2023-11-21T07:40:17;7.53;;;3.50;;
1412;SDS011;701;52.526;13.408;2023-11-21T07:42:43;8.40;;;3.60;;
1412;SDS011;701;52.526;13.408;2023-11-21T07:45:09;12.95;;;3.85;;
1412;SDS011;701;52.526;13.408;2023-11-21T07:47:36;9.05;;;3.53;;
1412;SDS011;701;52.526;13.408;2023-11-21T07:50:04;10.02;;;3.70;;
1412;SDS011;701;52.526;13.408;2023-11-21T07:52:32;7.82;;;3.20;;
1412;SDS011;701;52.526;13.408;2023-11-21T07:54:58;8.93;;;3.47;;
1412;SDS011;701;52.526;13.408;2023-11-21T07:57:24;7.18;;;3.33;;
1412;SDS011;701;52.526;13.408;2023-11-21T07:59:50;7.93;;;3.60;;
1412;SDS011;701;52.526;13.408;2023-11-21T08:02:18;7.47;;;3.05;;
1412;SDS011;701;52.526;13.408;2023-11-21T08:04:44;8.45;;;3.72;;
1412;SDS011;701;52.526;13.408;2023-11-21T08:07:10;7.18;;;3.03;;
1412;SDS011;701;52.526;13.408;2023-11-21T08:09:36;7.78;;;3.38;;
1412;SDS011;701;52.526;13.408;2023-11-21T08:12:02;7.28;;;3.20;;
1412;SDS011;701;52.526;13.408;2023-11-21T08:14:28;9.70;;;3.60;;
1412;SDS011;701;52.526;13.408;2023-11-21T08:16:54;8.93;;;3.10;;
1412;SDS011;701;52.526;13.408;2023-11-21T08:19:23;7.72;;;3.13;;
1412;SDS011;701;52.526;13.408;2023-11-21T08:21:50;8.75;;;3.30;;
1412;SDS011;701;52.526;13.408;2023-11-21T08:24:19;10.50;;;4.73;;
1412;SDS011;701;52.526;13.408;2023-11-21T08:26:46;8.13;;;3.58;;
1412;SDS011;701;52.526;13.408;2023-11-21T08:29:12;8.35;;;3.10;;
1412;SDS011;701;52.526;13.408;2023-11-21T08:31:38;10.25;;;3.47;;
1412;SDS011;701;52.526;13.408;2023-11-21T08:34:04;9.90;;;3.57;;
1412;SDS011;701;52.526;13.408;2023-11-21T08:36:30;8.43;;;3.70;;
1412;SDS011;701;52.526;13.408;2023-11-21T08:38:56;9.63;;;3.20;;
1412;SDS011;701;52.526;13.408;2023-11-21T08:41:22;9.50;;;3.27;;
1412;SDS011;701;52.526;13.408;2023-11-21T08:43:49;15.48;;;3.60;;
1412;SDS011;701;52.526;13.408;2023-11-21T08:46:16;9.70;;;3.03;;
1412;SDS011;701;52.526;13.408;2023-11-21T08:48:44;10.20;;;3.53;;
1412;SDS011;701;52.526;13.408;2023-11-21T08:51:11;9.25;;;3.88;;
1412;SDS011;701;52.526;13.408;2023-11-21T08:53:37;9.65;;;3.28;;
1412;SDS011;701;52.526;13.408;2023-11-21T08:56:03;8.80;;;3.22;;
1412;SDS011;701;52.526;13.408;2023-11-21T08:58:30;12.15;;;4.03;;
1412;SDS011;701;52.526;13.408;2023-11-21T09:00:57;13.53;;;4.00;;
1412;SDS011;701;52.526;13.408;2023-11-21T09:03:23;14.57;;;4.38;;
1412;SDS011;701;52.526;13.408;2023-11-21T09:05:50;14.27;;;4.07;;
1412;SDS011;701;52.526;13.408;2023-11-21T09:08:16;12.15;;;3.83;;
1412;SDS011;701;52.526;13.408;2023-11-21T09:10:42;11.23;;;3.70;;
1412;SDS011;701;52.526;13.408;2023-11-21T09:13:10;10.35;;;3.63;;
1412;SDS011;701;52.526;13.408;2023-11-21T09:15:36;12.40;;;3.95;;
1412;SDS011;701;52.526;13.408;2023-11-21T09:18:02;10.73;;;3.63;;
1412;SDS011;701;52.526;13.408;2023-11-21T09:20:28;11.47;;;4.00;;
1412;SDS011;701;52.526;13.408;2023-11-21T09:22:53;10.48;;;3.80;;
1412;SDS011;701;52.526;13.408;2023-11-21T09:25:20;11.57;;;3.88;;
1412;SDS011;701;52.526;13.408;2023-11-21T09:27:46;12.57;;;3.87;;
1412;SDS011;701;52.526;13.408;2023-11-21T09:30:12;15.15;;;4.55;;
1412;SDS011;701;52.526;13.408;2023-11-21T09:32:39;12.70;;;4.30;;
1412;SDS011;701;52.526;13.408;2023-11-21T09:35:05;12.77;;;3.77;;
1412;SDS011;701;52.526;13.408;2023-11-21T09:37:33;10.70;;;3.88;;
1412;SDS011;701;52.526;13.408;2023-11-21T09:39:59;14.55;;;3.90;;
1412;SDS011;701;52.526;13.408;2023-11-21T09:42:30;16.73;;;4.53;;
1412;SDS011;701;52.526;13.408;2023-11-21T09:45:15;12.90;;;3.47;;
1412;SDS011;701;52.526;13.408;2023-11-21T09:47:46;13.90;;;4.50;;
1412;SDS011;701;52.526;13.408;2023-11-21T09:50:12;9.60;;;3.80;;
1412;SDS011;701;52.526;13.408;2023-11-21T09:53:08;9.55;;;3.00;;
1412;SDS011;701;52.526;13.408;2023-11-21T09:55:45;9.80;;;3.07;;
1412;SDS011;701;52.526;13.408;2023-11-21T09:58:13;9.13;;;2.67;;
1412;SDS011;701;52.526;13.408;2023-11-21T10:00:43;7.93;;;2.58;;
1412;SDS011;701;52.526;13.408;2023-11-21T10:03:10;7.00;;;2.45;;
1412;SDS011;701;52.526;13.408;2023-11-21T10:05:37;6.85;;;2.70;;
1412;SDS011;701;52.526;13.408;2023-11-21T10:08:10;6.30;;;2.60;;
1412;SDS011;701;52.526;13.408;2023-11-21T10:10:36;7.57;;;2.97;;
1412;SDS011;701;52.526;13.408;2023-11-21T10:13:04;8.45;;;2.83;;
1412;SDS011;701;52.526;13.408;2023-11-21T10:15:31;7.68;;;3.00;;
1412;SDS011;701;52.526;13.408;2023-11-21T10:18:00;6.85;;;2.35;;
1412;SDS011;701;52.526;13.408;2023-11-21T10:20:32;8.10;;;3.20;;
1412;SDS011;701;52.526;13.408;2023-11-21T10:23:03;7.03;;;2.90;;
1412;SDS011;701;52.526;13.408;2023-11-21T10:25:30;9.60;;;2.80;;
1412;SDS011;701;52.526;13.408;2023-11-21T10:27:59;10.00;;;3.25;;
1412;SDS011;701;52.526;13.408;2023-11-21T10:30:39;10.82;;;3.00;;
1412;SDS011;701;52.526;13.408;2023-11-21T10:33:05;7.77;;;2.90;;
1412;SDS011;701;52.526;13.408;2023-11-21T10:38:15;6.25;;;2.22;;
1412;SDS011;701;52.526;13.408;2023-11-21T10:40:41;7.00;;;2.47;;
1412;SDS011;701;52.526;13.408;2023-11-21T10:43:08;6.95;;;2.70;;
1412;SDS011;701;52.526;13.408;2023-11-21T10:45:34;8.37;;;2.50;;
1412;SDS011;701;52.526;13.408;2023-11-21T10:48:06;6.85;;;2.50;;
1412;SDS011;701;52.526;13.408;2023-11-21T10:50:40;7.20;;;2.40;;
1412;SDS011;701;52.526;13.408;2023-11-21T10:53:06;6.40;;;2.20;;
1412;SDS011;701;52.526;13.408;2023-11-21T10:55:33;5.63;;;2.20;;
1412;SDS011;701;52.526;13.408;2023-11-21T10:58:00;6.70;;;2.53;;
1412;SDS011;701;52.526;13.408;2023-11-21T11:00:28;6.70;;;2.25;;
1412;SDS011;701;52.526;13.408;2023-11-21T11:02:54;6.07;;;2.38;;
1412;SDS011;701;52.526;13.408;2023-11-21T11:05:21;7.53;;;2.55;;
1412;SDS011;701;52.526;13.408;2023-11-21T11:07:51;7.28;;;2.60;;
1412;SDS011;701;52.526;13.408;2023-11-21T11:10:25;8.73;;;2.33;;
1412;SDS011;701;52.526;13.408;2023-11-21T11:12:53;7.55;;;2.42;;
1412;SDS011;701;52.526;13.408;2023-11-21T11:15:19;6.10;;;2.47;;
1412;SDS011;701;52.526;13.408;2023-11-21T11:17:45;6.63;;;2.28;;
1412;SDS011;701;52.526;13.408;2023-11-21T11:20:12;5.82;;;2.15;;
1412;SDS011;701;52.526;13.408;2023-11-21T11:22:50;6.83;;;2.57;;
1412;SDS011;701;52.526;13.408;2023-11-21T11:25:52;7.53;;;2.50;;
1412;SDS011;701;52.526;13.408;2023-11-21T11:34:30;7.63;;;2.13;;
1412;SDS011;701;52.526;13.408;2023-11-21T11:37:03;5.67;;;2.13;;
1412;SDS011;701;52.526;13.408;2023-11-21T11:39:38;6.97;;;2.70;;
1412;SDS011;701;52.526;13.408;2023-11-21T11:42:13;6.35;;;1.95;;
1412;SDS011;701;52.526;13.408;2023-11-21T11:47:16;6.80;;;2.20;;
1412;SDS011;701;52.526;13.408;2023-11-21T11:49:58;5.27;;;2.30;;
1412;SDS011;701;52.526;13.408;2023-11-21T11:52:32;6.97;;;2.15;;
1412;SDS011;701;52.526;13.408;2023-11-21T11:55:02;5.78;;;2.55;;
1412;SDS011;701;52.526;13.408;2023-11-21T11:57:32;5.70;;;2.05;;
1412;SDS011;701;52.526;13.408;2023-11-21T12:02:51;6.03;;;2.50;;
1412;SDS011;701;52.526;13.408;2023-11-21T12:05:18;7.07;;;2.40;;
1412;SDS011;701;52.526;13.408;2023-11-21T12:07:52;5.78;;;2.30;;
1412;SDS011;701;52.526;13.408;2023-11-21T12:12:54;5.30;;;2.00;;
1412;SDS011;701;52.526;13.408;2023-11-21T12:15:21;6.43;;;2.40;;
1412;SDS011;701;52.526;13.408;2023-11-21T12:17:49;5.75;;;2.10;;
1412;SDS011;701;52.526;13.408;2023-11-21T12:20:16;5.78;;;2.33;;
1412;SDS011;701;52.526;13.408;2023-11-21T12:22:45;4.82;;;1.83;;
1412;SDS011;701;52.526;13.408;2023-11-21T12:25:33;6.28;;;2.17;;
1412;SDS011;701;52.526;13.408;2023-11-21T12:27:59;7.37;;;2.60;;
1412;SDS011;701;52.526;13.408;2023-11-21T12:30:26;8.07;;;2.40;;
1412;SDS011;701;52.526;13.408;2023-11-21T12:32:55;5.68;;;1.95;;
1412;SDS011;701;52.526;13.408;2023-11-21T12:35:24;7.63;;;2.55;;
1412;SDS011;701;52.526;13.408;2023-11-21T12:37:55;5.40;;;2.17;;
1412;SDS011;701;52.526;13.408;2023-11-21T12:40:25;8.00;;;2.53;;
1412;SDS011;701;52.526;13.408;2023-11-21T12:42:52;6.82;;;2.40;;
1412;SDS011;701;52.526;13.408;2023-11-21T12:45:22;7.68;;;2.42;;
1412;SDS011;701;52.526;13.408;2023-11-21T12:48:01;5.43;;;2.20;;
1412;SDS011;701;52.526;13.408;2023-11-21T12:50:32;6.10;;;2.20;;
1412;SDS011;701;52.526;13.408;2023-11-21T12:53:07;4.80;;;1.77;;
1412;SDS011;701;52.526;13.408;2023-11-21T12:55:35;5.25;;;1.75;;
1412;SDS011;701;52.526;13.408;2023-11-21T12:58:02;5.63;;;2.00;;
1412;SDS011;701;52.526;13.408;2023-11-21T13:00:40;7.13;;;2.50;;
1412;SDS011;701;52.526;13.408;2023-11-21T13:03:13;5.93;;;2.40;;
1412;SDS011;701;52.526;13.408;2023-11-21T13:05:43;6.97;;;2.57;;
1412;SDS011;701;52.526;13.408;2023-11-21T13:08:11;7.47;;;2.83;;
1412;SDS011;701;52.526;13.408;2023-11-21T13:10:39;6.78;;;2.22;;
1412;SDS011;701;52.526;13.408;2023-11-21T13:13:07;8.18;;;3.03;;
1412;SDS011;701;52.526;13.408;2023-11-21T13:15:35;6.80;;;2.53;;
1412;SDS011;701;52.526;13.408;2023-11-21T13:18:05;6.53;;;2.70;;
1412;SDS011;701;52.526;13.408;2023-11-21T13:20:32;7.45;;;2.50;;
1412;SDS011;701;52.526;13.408;2023-11-21T13:22:58;7.07;;;2.75;;
1412;SDS011;701;52.526;13.408;2023-11-21T13:25:26;9.50;;;2.83;;
1412;SDS011;701;52.526;13.408;2023-11-21T13:27:55;7.55;;;2.83;;
1412;SDS011;701;52.526;13.408;2023-11-21T13:30:22;10.77;;;3.00;;
1412;SDS011;701;52.526;13.408;2023-11-21T13:32:52;7.30;;;3.08;;
1412;SDS011;701;52.526;13.408;2023-11-21T13:35:30;7.10;;;2.92;;
1412;SDS011;701;52.526;13.408;2023-11-21T13:38:18;8.32;;;3.15;;
1412;SDS011;701;52.526;13.408;2023-11-21T13:40:52;9.55;;;3.72;;
1412;SDS011;701;52.526;13.408;2023-11-21T13:43:22;8.83;;;3.50;;
1412;SDS011;701;52.526;13.408;2023-11-21T13:45:51;8.10;;;3.53;;
1412;SDS011;701;52.526;13.408;2023-11-21T13:48:25;9.77;;;3.67;;
1412;SDS011;701;52.526;13.408;2023-11-21T13:50:57;8.43;;;3.80;;
1412;SDS011;701;52.526;13.408;2023-11-21T13:53:26;10.63;;;4.53;;
1412;SDS011;701;52.526;13.408;2023-11-21T13:55:52;8.10;;;3.37;;
1412;SDS011;701;52.526;13.408;2023-11-21T13:58:20;8.27;;;3.70;;
1412;SDS011;701;52.526;13.408;2023-11-21T14:00:57;9.50;;;3.47;;
1412;SDS011;701;52.526;13.408;2023-11-21T14:03:23;7.93;;;3.65;;
1412;SDS011;701;52.526;13.408;2023-11-21T14:05:57;8.82;;;3.75;;
1412;SDS011;701;52.526;13.408;2023-11-21T14:08:25;10.88;;;4.20;;
1412;SDS011;701;52.526;13.408;2023-11-21T14:10:54;10.35;;;4.65;;
1412;SDS011;701;52.526;13.408;2023-11-21T14:13:24;11.10;;;4.70;;
1412;SDS011;701;52.526;13.408;2023-11-21T14:15:53;10.20;;;4.47;;
1412;SDS011;701;52.526;13.408;2023-11-21T14:18:26;14.52;;;5.30;;
1412;SDS011;701;52.526;13.408;2023-11-21T14:20:56;13.68;;;5.75;;
1412;SDS011;701;52.526;13.408;2023-11-21T14:23:22;13.27;;;5.40;;
1412;SDS011;701;52.526;13.408;2023-11-21T14:25:48;14.65;;;6.97;;
1412;SDS011;701;52.526;13.408;2023-11-21T14:28:15;13.70;;;7.00;;
1412;SDS011;701;52.526;13.408;2023-11-21T14:30:41;14.53;;;7.13;;
1412;SDS011;701;52.526;13.408;2023-11-21T14:33:07;15.23;;;7.47;;
1412;SDS011;701;52.526;13.408;2023-11-21T14:35:36;13.65;;;6.63;;
1412;SDS011;701;52.526;13.408;2023-11-21T14:38:02;15.93;;;7.10;;
1412;SDS011;701;52.526;13.408;2023-11-21T14:40:33;16.33;;;7.50;;
1412;SDS011;701;52.526;13.408;2023-11-21T14:43:01;16.00;;;7.15;;
1412;SDS011;701;52.526;13.408;2023-11-21T14:45:33;17.00;;;7.32;;
1412;SDS011;701;52.526;13.408;2023-11-21T14:48:00;15.37;;;7.87;;
1412;SDS011;701;52.526;13.408;2023-11-21T14:50:51;17.65;;;8.60;;
1412;SDS011;701;52.526;13.408;2023-11-21T14:53:17;18.45;;;8.45;;
1412;SDS011;701;52.526;13.408;2023-11-21T14:55:59;19.15;;;8.80;;
1412;SDS011;701;52.526;13.408;2023-11-21T14:58:27;16.83;;;8.17;;
1412;SDS011;701;52.526;13.408;2023-11-21T15:00:53;22.27;;;8.45;;
1412;SDS011;701;52.526;13.408;2023-11-21T15:03:26;18.17;;;8.63;;
1412;SDS011;701;52.526;13.408;2023-11-21T15:06:02;18.00;;;8.43;;
1412;SDS011;701;52.526;13.408;2023-11-21T15:08:44;16.75;;;8.20;;
1412;SDS011;701;52.526;13.408;2023-11-21T15:11:20;15.30;;;7.68;;
1412;SDS011;701;52.526;13.408;2023-11-21T15:13:50;16.52;;;8.15;;
1412;SDS011;701;52.526;13.408;2023-11-21T15:16:17;17.33;;;7.35;;
1412;SDS011;701;52.526;13.408;2023-11-21T15:18:44;17.67;;;7.77;;
1412;SDS011;701;52.526;13.408;2023-11-21T15:21:09;16.05;;;7.63;;
1412;SDS011;701;52.526;13.408;2023-11-21T15:23:37;15.02;;;7.43;;
1412;SDS011;701;52.526;13.408;2023-11-21T15:26:04;15.80;;;7.37;;